Time;durP1;ratioP1;P1;durP2;ratioP2;P2;SDS_P1;SDS_P2;PMS_P1;PMS_P2;Temp;Humidity;BMP_temperature;BMP_pressure;BME280_temperature;BME280_humidity;BME280_pressure;Samples;Min_cycle;Max_cycle;Signal;HPM_P1;HPM_P2
2022/04/10 00:00:10;;;;;;;;;;;22.00;50.80;;;;;;5096674;28;19960;-44
2022/04/10 00:02:37;;;;;;;;;;;22.00;50.70;;;;;;5096464;28;19971;-44
2022/04/10 00:05:04;;;;;;;;;;;22.00;50.80;;;;;;5096590;28;19942;-46
2022/04/10 00:07:31;;;;;;;;;;;21.90;50.70;;;;;;5095227;28;19994;-45
2022/04/10 00:09:58;;;;;;;;;;;22.00;50.70;;;;;;5096015;28;19946;-46
2022/04/10 00:12:24;;;;;;;;;;;22.00;50.70;;;;;;5096057;28;20440;-44
2022/04/10 00:14:51;;;;;;;;;;;21.90;50.70;;;;;;5096410;28;20048;-45
2022/04/10 00:17:18;;;;;;;;;;;21.90;50.70;;;;;;5096378;28;20333;-45
2022/04/10 00:19:46;;;;;;;;;;;21.90;50.70;;;;;;5095946;28;20457;-45
2022/04/10 00:22:13;;;;;;;;;;;22.00;50.80;;;;;;5095204;28;20010;-44
2022/04/10 00:24:40;;;;;;;;;;;21.90;50.70;;;;;;5095774;28;19924;-44
2022/04/10 00:27:07;;;;;;;;;;;21.90;50.70;;;;;;5095795;28;19925;-45
2022/04/10 00:29:34;;;;;;;;;;;21.90;50.70;;;;;;5095748;28;19924;-44
2022/04/10 00:32:01;;;;;;;;;;;21.90;50.70;;;;;;5095740;28;19932;-44
2022/04/10 00:34:28;;;;;;;;;;;21.90;50.70;;;;;;5095936;28;19969;-44
2022/04/10 00:36:55;;;;;;;;;;;21.90;50.70;;;;;;5095587;28;19924;-44
2022/04/10 00:39:22;;;;;;;;;;;21.90;50.70;;;;;;5094627;28;20455;-44
2022/04/10 00:41:49;;;;;;;;;;;21.90;50.70;;;;;;5095863;28;20003;-44
2022/04/10 00:44:16;;;;;;;;;;;21.90;50.70;;;;;;5095500;28;19972;-50
2022/04/10 00:46:43;;;;;;;;;;;21.90;50.70;;;;;;5095698;28;19928;-44
2022/04/10 00:49:10;;;;;;;;;;;21.90;50.70;;;;;;5095300;28;19923;-49
2022/04/10 00:51:40;;;;;;;;;;;21.90;50.70;;;;;;5095230;28;19924;-44
2022/04/10 00:54:12;;;;;;;;;;;21.90;50.70;;;;;;5094692;28;20260;-44
2022/04/10 00:56:39;;;;;;;;;;;21.90;50.70;;;;;;5095614;28;19924;-46
2022/04/10 00:59:06;;;;;;;;;;;21.90;50.70;;;;;;5095526;28;19973;-44
2022/04/10 01:01:34;;;;;;;;;;;21.90;50.70;;;;;;5095158;28;19969;-46
2022/04/10 01:04:21;;;;;;;;;;;21.90;50.60;;;;;;5095128;28;19955;-43
2022/04/10 01:06:50;;;;;;;;;;;21.90;50.70;;;;;;5094979;28;19924;-44
2022/04/10 01:09:17;;;;;;;;;;;22.00;50.70;;;;;;5094292;28;20015;-44
2022/04/10 01:11:44;;;;;;;;;;;22.00;50.70;;;;;;5095219;28;20018;-48
2022/04/10 01:14:13;;;;;;;;;;;21.90;50.60;;;;;;5095206;28;19955;-44
2022/04/10 01:16:41;;;;;;;;;;;21.90;50.50;;;;;;5094847;28;20448;-44
2022/04/10 01:19:10;;;;;;;;;;;21.90;50.50;;;;;;5094844;28;19924;-44
2022/04/10 01:21:44;;;;;;;;;;;21.90;50.50;;;;;;5094680;28;19970;-46
2022/04/10 01:24:11;;;;;;;;;;;21.90;50.60;;;;;;5072296;28;20015;-49
2022/04/10 01:26:38;;;;;;;;;;;21.90;50.60;;;;;;5074746;28;20064;-46
2022/04/10 01:29:07;;;;;;;;;;;21.90;50.50;;;;;;5074713;28;19924;-48
2022/04/10 01:31:35;;;;;;;;;;;21.90;50.60;;;;;;5074283;28;19978;-44
2022/04/10 01:34:03;;;;;;;;;;;21.90;50.60;;;;;;5074266;28;20434;-44
2022/04/10 01:36:30;;;;;;;;;;;21.90;50.60;;;;;;5073509;28;19924;-44
2022/04/10 01:38:58;;;;;;;;;;;21.90;50.50;;;;;;5073042;28;19960;-46
2022/04/10 01:41:26;;;;;;;;;;;21.90;50.50;;;;;;5074185;28;19925;-45
2022/04/10 01:43:54;;;;;;;;;;;21.90;50.50;;;;;;5074429;28;19968;-45
2022/04/10 01:46:25;;;;;;;;;;;21.90;50.50;;;;;;5074345;28;19928;-44
2022/04/10 01:48:52;;;;;;;;;;;21.90;50.50;;;;;;5074122;28;19928;-44
2022/04/10 01:51:20;;;;;;;;;;;21.90;50.50;;;;;;5073920;28;19925;-46
2022/04/10 01:53:47;;;;;;;;;;;21.90;50.60;;;;;;5072876;28;19928;-44
2022/04/10 01:56:15;;;;;;;;;;;21.90;50.50;;;;;;5075105;28;19925;-48
2022/04/10 01:58:43;;;;;;;;;;;21.90;50.50;;;;;;5074158;28;19924;-46
2022/04/10 02:01:11;;;;;;;;;;;21.90;50.50;;;;;;5072737;28;19928;-46
2022/04/10 02:03:39;;;;;;;;;;;21.90;50.50;;;;;;5074211;28;19924;-46
2022/04/10 02:06:07;;;;;;;;;;;21.90;50.50;;;;;;5072619;28;19976;-48
2022/04/10 02:08:37;;;;;;;;;;;21.90;50.50;;;;;;5056271;28;20008;-47
2022/04/10 02:11:21;;;;;;;;;;;21.90;50.50;;;;;;5074031;28;19967;-44
2022/04/10 02:13:48;;;;;;;;;;;21.90;50.50;;;;;;5074088;28;20041;-48
2022/04/10 02:16:16;;;;;;;;;;;21.90;50.50;;;;;;5074060;28;19924;-45
2022/04/10 02:18:43;;;;;;;;;;;21.90;50.50;;;;;;5073710;28;19970;-46
2022/04/10 02:21:10;;;;;;;;;;;21.90;50.50;;;;;;5074436;28;19932;-47
2022/04/10 02:23:37;;;;;;;;;;;21.90;51.10;;;;;;5071304;28;19924;-44
2022/04/10 02:26:04;;;;;;;;;;;21.90;50.50;;;;;;5073881;28;19994;-47
2022/04/10 02:28:31;;;;;;;;;;;21.90;50.50;;;;;;5073767;28;20326;-49
2022/04/10 02:30:58;;;;;;;;;;;21.90;50.50;;;;;;5073169;28;20119;-44
2022/04/10 02:33:25;;;;;;;;;;;21.90;50.50;;;;;;5073888;28;20335;-44
2022/04/10 02:35:52;;;;;;;;;;;21.90;50.50;;;;;;5073586;28;19924;-44
2022/04/10 02:38:19;;;;;;;;;;;21.90;50.50;;;;;;5073498;28;19924;-44
2022/04/10 02:40:46;;;;;;;;;;;21.90;50.50;;;;;;5071605;28;19990;-44
2022/04/10 02:43:14;;;;;;;;;;;21.90;50.50;;;;;;5072634;28;19928;-44
2022/04/10 02:45:44;;;;;;;;;;;21.90;50.50;;;;;;5073761;28;19960;-44
2022/04/10 02:48:11;;;;;;;;;;;21.90;50.50;;;;;;5073631;28;20446;-43
2022/04/10 02:50:39;;;;;;;;;;;21.80;50.50;;;;;;5073544;28;19970;-44
2022/04/10 02:53:06;;;;;;;;;;;21.90;50.60;;;;;;5073379;28;20356;-44
2022/04/10 02:55:33;;;;;;;;;;;21.90;50.50;;;;;;5072651;28;19991;-44
2022/04/10 02:58:01;;;;;;;;;;;21.90;50.50;;;;;;5073321;28;19975;-44
2022/04/10 03:00:28;;;;;;;;;;;21.90;50.50;;;;;;5073544;28;19925;-44
2022/04/10 03:02:55;;;;;;;;;;;21.90;50.40;;;;;;5073522;28;20363;-43
2022/04/10 03:05:22;;;;;;;;;;;21.90;50.50;;;;;;5073946;28;20387;-44
2022/04/10 03:07:54;;;;;;;;;;;21.90;50.50;;;;;;5077081;28;19924;-45
2022/04/10 03:10:21;;;;;;;;;;;21.80;50.50;;;;;;5076317;28;19924;-43
2022/04/10 03:12:48;;;;;;;;;;;21.90;50.50;;;;;;5076906;28;19970;-44
2022/04/10 03:15:15;;;;;;;;;;;21.80;50.50;;;;;;5076935;28;20020;-44
2022/04/10 03:17:42;;;;;;;;;;;21.80;50.50;;;;;;5077211;28;19924;-44
2022/04/10 03:20:11;;;;;;;;;;;21.80;50.50;;;;;;5077121;28;19928;-44
2022/04/10 03:22:39;;;;;;;;;;;21.80;50.60;;;;;;5081060;28;20427;-43
2022/04/10 03:25:07;;;;;;;;;;;21.80;50.50;;;;;;5095841;28;19924;-44
2022/04/10 03:27:34;;;;;;;;;;;21.80;50.50;;;;;;5096942;28;19974;-44
2022/04/10 03:30:02;;;;;;;;;;;21.80;50.50;;;;;;5097289;28;19970;-44
2022/04/10 03:32:29;;;;;;;;;;;21.80;50.60;;;;;;5097225;28;19978;-46
2022/04/10 03:34:56;;;;;;;;;;;21.80;50.50;;;;;;5096895;28;19932;-44
2022/04/10 03:37:23;;;;;;;;;;;21.80;50.50;;;;;;5097134;28;20040;-44
2022/04/10 03:39:50;;;;;;;;;;;21.80;50.50;;;;;;5096050;28;19924;-43
2022/04/10 03:42:20;;;;;;;;;;;21.80;50.50;;;;;;5096957;28;20294;-44
2022/04/10 03:44:47;;;;;;;;;;;21.80;50.50;;;;;;5096675;28;19931;-44
2022/04/10 03:47:14;;;;;;;;;;;21.80;50.50;;;;;;5096254;28;20366;-44
2022/04/10 03:49:41;;;;;;;;;;;21.80;50.50;;;;;;5076373;28;19924;-44
2022/04/10 03:52:08;;;;;;;;;;;21.80;50.50;;;;;;5076530;28;19928;-44
2022/04/10 03:54:35;;;;;;;;;;;21.80;50.50;;;;;;5059787;28;19974;-44
2022/04/10 03:57:03;;;;;;;;;;;21.80;50.50;;;;;;5096798;28;19924;-44
2022/04/10 03:59:31;;;;;;;;;;;21.80;50.50;;;;;;5097301;28;19924;-44
2022/04/10 04:01:58;;;;;;;;;;;21.80;50.50;;;;;;5096372;28;19977;-45
2022/04/10 04:04:25;;;;;;;;;;;21.80;50.50;;;;;;5096631;28;19924;-44
2022/04/10 04:06:52;;;;;;;;;;;21.80;50.50;;;;;;5096109;28;20019;-45
2022/04/10 04:09:19;;;;;;;;;;;21.80;50.40;;;;;;5078269;28;19973;-45
2022/04/10 04:11:46;;;;;;;;;;;21.80;50.40;;;;;;5095561;28;19924;-44
2022/04/10 04:14:13;;;;;;;;;;;21.80;50.50;;;;;;5096438;28;19982;-44
2022/04/10 04:16:40;;;;;;;;;;;21.80;50.50;;;;;;5095608;28;19924;-44
2022/04/10 04:19:07;;;;;;;;;;;21.80;50.50;;;;;;5095983;28;19975;-43
2022/04/10 04:21:34;;;;;;;;;;;21.80;50.50;;;;;;5077979;28;20022;-44
2022/04/10 04:24:01;;;;;;;;;;;21.80;50.50;;;;;;5095791;28;19924;-46
2022/04/10 04:26:28;;;;;;;;;;;21.80;50.50;;;;;;5095284;28;19960;-44
2022/04/10 04:28:55;;;;;;;;;;;21.80;50.50;;;;;;5096097;28;19954;-43
2022/04/10 04:31:22;;;;;;;;;;;21.80;50.50;;;;;;5096011;28;19946;-47
2022/04/10 04:33:49;;;;;;;;;;;21.80;50.50;;;;;;5096064;28;20003;-44
2022/04/10 04:36:16;;;;;;;;;;;21.80;50.50;;;;;;5095692;28;20426;-43
2022/04/10 04:38:44;;;;;;;;;;;21.80;50.50;;;;;;5095483;28;19924;-47
2022/04/10 04:41:12;;;;;;;;;;;21.80;50.50;;;;;;5094659;28;19924;-48
2022/04/10 04:43:39;;;;;;;;;;;21.80;50.50;;;;;;5095815;28;19924;-44
2022/04/10 04:46:06;;;;;;;;;;;21.80;50.40;;;;;;5095433;28;20019;-47
2022/04/10 04:48:33;;;;;;;;;;;21.80;50.50;;;;;;5095298;28;20018;-44
2022/04/10 04:51:02;;;;;;;;;;;21.80;50.50;;;;;;5095162;28;19931;-44
2022/04/10 04:53:29;;;;;;;;;;;21.80;50.50;;;;;;5095573;28;19947;-44
2022/04/10 04:55:56;;;;;;;;;;;21.80;50.50;;;;;;5094719;28;20342;-44
2022/04/10 04:58:23;;;;;;;;;;;21.80;50.50;;;;;;5095174;28;19967;-43
2022/04/10 05:00:50;;;;;;;;;;;21.80;50.50;;;;;;5087493;28;19925;-45
2022/04/10 05:03:17;;;;;;;;;;;21.80;50.50;;;;;;5074902;28;19932;-44
2022/04/10 05:05:44;;;;;;;;;;;21.80;50.50;;;;;;5075184;28;19928;-44
2022/04/10 05:08:11;;;;;;;;;;;21.80;50.40;;;;;;5074754;28;20492;-44
2022/04/10 05:10:38;;;;;;;;;;;21.80;50.40;;;;;;5078036;28;19932;-45
2022/04/10 05:13:07;;;;;;;;;;;21.80;50.40;;;;;;5095320;28;19924;-44
2022/04/10 05:15:34;;;;;;;;;;;21.80;50.30;;;;;;5094934;28;19932;-44
2022/04/10 05:18:01;;;;;;;;;;;21.80;50.30;;;;;;5095056;28;19931;-45
2022/04/10 05:20:28;;;;;;;;;;;21.80;50.30;;;;;;5094003;28;19963;-44
2022/04/10 05:22:56;;;;;;;;;;;21.80;50.30;;;;;;5094541;28;19938;-44
2022/04/10 05:25:23;;;;;;;;;;;21.80;50.30;;;;;;5093742;28;20350;-44
2022/04/10 05:27:50;;;;;;;;;;;21.90;50.30;;;;;;5074122;28;19924;-44
2022/04/10 05:30:17;;;;;;;;;;;21.90;50.30;;;;;;5074615;28;19928;-44
2022/04/10 05:32:44;;;;;;;;;;;21.80;50.20;;;;;;5074312;28;19925;-50
2022/04/10 05:35:11;;;;;;;;;;;21.90;50.30;;;;;;5074604;28;19925;-43
2022/04/10 05:37:38;;;;;;;;;;;21.90;50.20;;;;;;5092023;28;19924;-49
2022/04/10 05:40:05;;;;;;;;;;;21.90;50.20;;;;;;5094423;28;20384;-44
2022/04/10 05:42:36;;;;;;;;;;;21.90;50.10;;;;;;5093472;28;19924;-46
2022/04/10 05:45:04;;;;;;;;;;;22.00;50.20;;;;;;5094725;28;19947;-46
2022/04/10 05:47:31;;;;;;;;;;;22.00;50.20;;;;;;5094312;28;19924;-44
2022/04/10 05:49:58;;;;;;;;;;;22.00;50.10;;;;;;5094320;28;19927;-48
2022/04/10 05:52:25;;;;;;;;;;;22.00;50.10;;;;;;5094514;28;19924;-46
2022/04/10 05:54:52;;;;;;;;;;;22.00;50.10;;;;;;5094427;28;19963;-44
2022/04/10 05:57:19;;;;;;;;;;;22.00;50.10;;;;;;5093210;28;19950;-45
2022/04/10 05:59:46;;;;;;;;;;;22.00;50.10;;;;;;5094459;28;20291;-44
2022/04/10 06:02:13;;;;;;;;;;;22.00;50.10;;;;;;5076248;28;19967;-47
2022/04/10 06:04:40;;;;;;;;;;;22.00;50.10;;;;;;5094346;28;19931;-44
2022/04/10 06:07:07;;;;;;;;;;;22.00;50.00;;;;;;5094295;28;19973;-44
2022/04/10 06:09:34;;;;;;;;;;;22.00;50.00;;;;;;5094094;28;20034;-44
2022/04/10 06:12:01;;;;;;;;;;;22.00;50.00;;;;;;5093424;28;19924;-45
2022/04/10 06:14:28;;;;;;;;;;;22.00;49.90;;;;;;5093918;28;19970;-44
2022/04/10 06:16:55;;;;;;;;;;;22.10;49.90;;;;;;5094191;28;19924;-44
2022/04/10 06:19:22;;;;;;;;;;;22.10;49.80;;;;;;5094180;28;20333;-44
2022/04/10 06:21:49;;;;;;;;;;;22.10;49.70;;;;;;5093742;28;20433;-43
2022/04/10 06:24:16;;;;;;;;;;;22.10;49.70;;;;;;5092775;28;20010;-44
2022/04/10 06:26:44;;;;;;;;;;;22.10;49.70;;;;;;5092614;28;19924;-46
2022/04/10 06:29:11;;;;;;;;;;;22.10;49.60;;;;;;5094067;28;19979;-45
2022/04/10 06:31:38;;;;;;;;;;;22.10;49.70;;;;;;5094091;28;19924;-44
2022/04/10 06:34:06;;;;;;;;;;;22.10;49.70;;;;;;5094054;28;19967;-44
2022/04/10 06:36:33;;;;;;;;;;;22.10;49.70;;;;;;5094037;28;19982;-44
2022/04/10 06:39:00;;;;;;;;;;;22.10;49.70;;;;;;5093739;28;19924;-45
2022/04/10 06:41:27;;;;;;;;;;;22.10;49.60;;;;;;5078992;28;19974;-45
2022/04/10 06:43:54;;;;;;;;;;;22.10;49.60;;;;;;5097869;28;19969;-44
2022/04/10 06:46:21;;;;;;;;;;;22.10;49.60;;;;;;5098029;28;20345;-45
2022/04/10 06:48:48;;;;;;;;;;;22.10;49.60;;;;;;5097531;28;19924;-44
2022/04/10 06:51:16;;;;;;;;;;;22.10;49.60;;;;;;5092472;28;19947;-44
2022/04/10 06:53:43;;;;;;;;;;;22.10;49.60;;;;;;5077736;28;19924;-45
2022/04/10 06:56:10;;;;;;;;;;;22.20;49.60;;;;;;5077300;28;19974;-44
2022/04/10 06:58:37;;;;;;;;;;;22.20;49.60;;;;;;5096993;28;19935;-44
2022/04/10 07:01:04;;;;;;;;;;;22.20;49.50;;;;;;5097405;28;19923;-45
2022/04/10 07:03:32;;;;;;;;;;;22.20;49.50;;;;;;5097261;28;19931;-46
2022/04/10 07:05:58;;;;;;;;;;;22.20;49.50;;;;;;5097045;28;20337;-46
2022/04/10 07:08:26;;;;;;;;;;;22.20;49.50;;;;;;5097252;28;20022;-46
2022/04/10 07:10:53;;;;;;;;;;;22.20;49.50;;;;;;5080943;28;20438;-44
2022/04/10 07:13:21;;;;;;;;;;;22.20;50.00;;;;;;5074642;28;20015;-45
2022/04/10 07:15:52;;;;;;;;;;;22.20;49.40;;;;;;5097228;28;19969;-46
2022/04/10 07:18:19;;;;;;;;;;;22.20;49.30;;;;;;5097254;28;19924;-44
2022/04/10 07:20:46;;;;;;;;;;;22.30;49.30;;;;;;5097082;28;20421;-48
2022/04/10 07:25:58;;;;;;;;;;;22.30;49.30;;;;;;5097119;28;19928;-46
2022/04/10 07:28:25;;;;;;;;;;;22.30;49.30;;;;;;5096246;28;20318;-46
2022/04/10 07:30:52;;;;;;;;;;;22.30;49.30;;;;;;5096877;28;19977;-49
2022/04/10 07:33:20;;;;;;;;;;;22.30;49.30;;;;;;5096848;28;19931;-45
2022/04/10 07:35:46;;;;;;;;;;;22.30;49.30;;;;;;5097191;28;19931;-46
2022/04/10 07:38:13;;;;;;;;;;;22.30;49.30;;;;;;5096859;28;20019;-44
2022/04/10 07:40:40;;;;;;;;;;;22.30;49.30;;;;;;5096753;28;20450;-46
2022/04/10 07:43:07;;;;;;;;;;;22.30;49.30;;;;;;5096138;28;19931;-45
2022/04/10 07:48:20;;;;;;;;;;;22.40;49.20;;;;;;5096599;28;19931;-48
2022/04/10 07:50:47;;;;;;;;;;;22.40;49.10;;;;;;5084340;28;19971;-44
2022/04/10 07:53:15;;;;;;;;;;;22.40;49.00;;;;;;5076501;28;20300;-44
2022/04/10 07:55:41;;;;;;;;;;;22.50;49.00;;;;;;5058530;28;19924;-44
2022/04/10 07:58:09;;;;;;;;;;;22.50;49.00;;;;;;5086193;28;19927;-44
2022/04/10 08:00:36;;;;;;;;;;;22.50;48.90;;;;;;5078527;28;19924;-44
2022/04/10 08:03:02;;;;;;;;;;;22.50;48.90;;;;;;5096730;28;20325;-44
2022/04/10 08:05:30;;;;;;;;;;;22.50;48.80;;;;;;5096578;28;20368;-44
2022/04/10 08:07:57;;;;;;;;;;;22.50;48.80;;;;;;5096417;28;20007;-44
2022/04/10 08:10:24;;;;;;;;;;;22.50;48.80;;;;;;5078512;28;19928;-44
2022/04/10 08:12:51;;;;;;;;;;;22.50;48.80;;;;;;5095577;28;19924;-44
2022/04/10 08:15:19;;;;;;;;;;;22.50;48.80;;;;;;5078555;28;19928;-44
2022/04/10 08:17:46;;;;;;;;;;;22.50;48.80;;;;;;5096415;28;20031;-44
2022/04/10 08:20:13;;;;;;;;;;;22.50;48.90;;;;;;5096349;28;19928;-46
2022/04/10 08:22:40;;;;;;;;;;;22.50;48.90;;;;;;5095624;28;20434;-45
2022/04/10 08:25:08;;;;;;;;;;;22.50;48.90;;;;;;5095915;28;20018;-44
2022/04/10 08:27:35;;;;;;;;;;;22.50;48.90;;;;;;5095214;28;19936;-44
2022/04/10 08:30:03;;;;;;;;;;;22.50;48.90;;;;;;5095769;28;19931;-44
2022/04/10 08:32:41;;;;;;;;;;;22.50;49.50;;;;;;5067845;28;19998;-44
2022/04/10 08:35:08;;;;;;;;;;;22.50;48.80;;;;;;5075823;28;19967;-44
2022/04/10 08:37:35;;;;;;;;;;;22.50;48.80;;;;;;5057713;28;19925;-44
2022/04/10 08:40:03;;;;;;;;;;;22.60;48.70;;;;;;5075665;28;19975;-44
2022/04/10 08:42:30;;;;;;;;;;;22.60;48.70;;;;;;5076264;28;19929;-44
2022/04/10 08:44:57;;;;;;;;;;;22.60;48.60;;;;;;5095887;28;20015;-44
2022/04/10 08:47:25;;;;;;;;;;;22.60;48.50;;;;;;5095449;28;20015;-45
2022/04/10 08:49:53;;;;;;;;;;;22.70;48.50;;;;;;5095905;28;19971;-44
2022/04/10 08:52:21;;;;;;;;;;;22.70;48.50;;;;;;5095216;28;19967;-44
2022/04/10 08:54:49;;;;;;;;;;;22.70;48.50;;;;;;5095685;28;20291;-45
2022/04/10 08:57:15;;;;;;;;;;;22.70;48.50;;;;;;5095621;28;20295;-44
2022/04/10 08:59:42;;;;;;;;;;;22.70;48.50;;;;;;5076397;28;20384;-44
2022/04/10 09:02:10;;;;;;;;;;;22.70;48.50;;;;;;5094487;28;19928;-44
2022/04/10 09:04:38;;;;;;;;;;;22.60;48.40;;;;;;5094646;28;20011;-44
2022/04/10 09:07:07;;;;;;;;;;;22.70;48.50;;;;;;5095456;28;19963;-44
2022/04/10 09:09:35;;;;;;;;;;;22.70;48.30;;;;;;5094924;28;19937;-46
2022/04/10 09:12:03;;;;;;;;;;;22.70;48.30;;;;;;5077113;28;20010;-45
2022/04/10 09:14:36;;;;;;;;;;;22.70;48.40;;;;;;5094376;28;19928;-44
2022/04/10 09:17:09;;;;;;;;;;;22.70;48.50;;;;;;5094947;28;19931;-44
2022/04/10 09:19:37;;;;;;;;;;;22.70;48.40;;;;;;5076840;28;20399;-44
2022/04/10 09:22:23;;;;;;;;;;;22.70;48.30;;;;;;5094570;28;19977;-44
2022/04/10 09:25:02;;;;;;;;;;;22.70;48.30;;;;;;5094760;28;19954;-44
2022/04/10 09:27:31;;;;;;;;;;;22.70;48.20;;;;;;5094711;28;19928;-44
2022/04/10 09:29:58;;;;;;;;;;;22.70;48.30;;;;;;5076035;28;19947;-44
2022/04/10 09:32:45;;;;;;;;;;;22.70;48.50;;;;;;5094971;28;19925;-44
2022/04/10 09:35:13;;;;;;;;;;;22.70;48.30;;;;;;5095466;28;19974;-44
2022/04/10 09:37:44;;;;;;;;;;;22.70;48.90;;;;;;5076867;28;19982;-44
2022/04/10 09:40:24;;;;;;;;;;;22.70;48.40;;;;;;5094457;28;19946;-44
2022/04/10 09:42:58;;;;;;;;;;;22.60;48.30;;;;;;5094479;28;19971;-44
2022/04/10 09:45:39;;;;;;;;;;;22.60;48.40;;;;;;5094311;28;20023;-45
2022/04/10 09:48:19;;;;;;;;;;;22.70;48.40;;;;;;5094376;28;19924;-43
2022/04/10 09:50:47;;;;;;;;;;;22.60;48.40;;;;;;5094263;28;20383;-44
2022/04/10 09:53:14;;;;;;;;;;;22.60;48.40;;;;;;5094282;28;19977;-44
2022/04/10 09:55:42;;;;;;;;;;;22.60;48.40;;;;;;5094271;28;20432;-44
2022/04/10 09:58:13;;;;;;;;;;;22.60;48.40;;;;;;5093903;28;20035;-46
2022/04/10 10:00:43;;;;;;;;;;;22.60;48.50;;;;;;5094126;28;20345;-45
2022/04/10 10:03:11;;;;;;;;;;;22.60;48.50;;;;;;5094145;28;19924;-46
2022/04/10 10:05:38;;;;;;;;;;;22.60;48.50;;;;;;5094062;28;20299;-43
2022/04/10 10:08:06;;;;;;;;;;;22.60;48.50;;;;;;5094368;28;19977;-44
2022/04/10 10:10:35;;;;;;;;;;;22.70;48.50;;;;;;5093804;28;19924;-47
2022/04/10 10:13:04;;;;;;;;;;;22.70;48.40;;;;;;5094310;28;19924;-44
2022/04/10 10:15:37;;;;;;;;;;;22.70;48.30;;;;;;5092777;28;19924;-46
2022/04/10 10:18:05;;;;;;;;;;;22.70;48.20;;;;;;5094794;28;20411;-44
2022/04/10 10:20:32;;;;;;;;;;;22.70;48.20;;;;;;5093806;28;19983;-50
2022/04/10 10:23:00;;;;;;;;;;;22.60;48.20;;;;;;5093781;28;20353;-44
2022/04/10 10:25:33;;;;;;;;;;;22.70;48.20;;;;;;5093472;28;20216;-44
2022/04/10 10:28:00;;;;;;;;;;;22.70;48.20;;;;;;5076274;28;19927;-44
2022/04/10 10:30:38;;;;;;;;;;;22.70;48.20;;;;;;5074944;28;19978;-46
2022/04/10 10:33:19;;;;;;;;;;;22.70;48.20;;;;;;5094664;28;19924;-44
2022/04/10 10:35:50;;;;;;;;;;;22.70;48.10;;;;;;5094087;28;19924;-47
2022/04/10 10:38:23;;;;;;;;;;;22.70;48.20;;;;;;5093729;28;19931;-44
2022/04/10 10:40:51;;;;;;;;;;;22.70;48.20;;;;;;5093689;28;19928;-44
2022/04/10 10:43:20;;;;;;;;;;;22.70;48.20;;;;;;5093695;28;20384;-44
2022/04/10 10:45:49;;;;;;;;;;;22.70;48.10;;;;;;5093007;28;19967;-46
2022/04/10 10:48:37;;;;;;;;;;;22.70;48.20;;;;;;5093503;28;19931;-45
2022/04/10 10:51:11;;;;;;;;;;;22.70;48.20;;;;;;5093808;28;20016;-44
2022/04/10 10:53:44;;;;;;;;;;;22.70;48.20;;;;;;5092063;28;19924;-44
2022/04/10 10:56:17;;;;;;;;;;;22.80;48.10;;;;;;5093577;28;19928;-44
2022/04/10 10:59:21;;;;;;;;;;;22.80;48.00;;;;;;5092576;28;20380;-44
2022/04/10 11:01:51;;;;;;;;;;;22.80;48.00;;;;;;5093517;28;19967;-44
2022/04/10 11:04:20;;;;;;;;;;;22.80;47.90;;;;;;5093484;28;20406;-44
2022/04/10 11:06:50;;;;;;;;;;;22.80;47.90;;;;;;5093804;28;19942;-44
2022/04/10 11:09:21;;;;;;;;;;;22.80;47.90;;;;;;5093351;28;19928;-45
2022/04/10 11:11:51;;;;;;;;;;;22.80;47.90;;;;;;5093654;28;19982;-44
2022/04/10 11:14:35;;;;;;;;;;;22.80;47.90;;;;;;5092783;28;19931;-48
2022/04/10 11:17:15;;;;;;;;;;;22.90;47.90;;;;;;5092814;28;19970;-44
2022/04/10 11:20:03;;;;;;;;;;;22.90;47.80;;;;;;5093193;28;19971;-45
2022/04/10 11:22:32;;;;;;;;;;;22.90;47.80;;;;;;5093351;28;19966;-44
2022/04/10 11:25:03;;;;;;;;;;;22.90;47.80;;;;;;5093337;28;20445;-47
2022/04/10 11:28:12;;;;;;;;;;;23.00;47.80;;;;;;5095823;28;19932;-45
2022/04/10 11:30:40;;;;;;;;;;;22.90;47.70;;;;;;4994418;28;19926;-45
2022/04/10 11:33:09;;;;;;;;;;;22.90;47.70;;;;;;4995409;28;20325;-48
2022/04/10 11:35:42;;;;;;;;;;;22.90;47.70;;;;;;4995336;28;19925;-45
2022/04/10 11:38:15;;;;;;;;;;;22.90;47.80;;;;;;4995303;28;20429;-47
2022/04/10 11:40:47;;;;;;;;;;;22.90;47.80;;;;;;4995416;28;20021;-45
2022/04/10 11:43:18;;;;;;;;;;;22.90;47.80;;;;;;4995268;28;19932;-46
2022/04/10 11:45:48;;;;;;;;;;;22.90;47.90;;;;;;4994068;28;20013;-45
2022/04/10 11:48:16;;;;;;;;;;;22.90;47.90;;;;;;4994985;28;20374;-47
2022/04/10 11:50:43;;;;;;;;;;;22.80;47.90;;;;;;4994797;28;19988;-46
2022/04/10 11:53:17;;;;;;;;;;;22.80;47.90;;;;;;4995114;28;19933;-45
2022/04/10 11:55:48;;;;;;;;;;;22.80;47.90;;;;;;4994817;28;19926;-46
2022/04/10 11:58:18;;;;;;;;;;;22.80;48.00;;;;;;4994690;28;19925;-45
2022/04/10 12:00:46;;;;;;;;;;;22.80;48.00;;;;;;4993581;28;19933;-46
2022/04/10 12:03:13;;;;;;;;;;;22.80;48.00;;;;;;4994838;28;20001;-47
2022/04/10 12:05:40;;;;;;;;;;;22.80;48.00;;;;;;5019818;28;19924;-52
2022/04/10 12:08:07;;;;;;;;;;;22.80;47.90;;;;;;5076374;28;20342;-46
2022/04/10 12:10:34;;;;;;;;;;;22.90;47.90;;;;;;5076184;28;19924;-45
2022/04/10 12:13:01;;;;;;;;;;;22.90;47.80;;;;;;5075957;28;19975;-45
2022/04/10 12:15:28;;;;;;;;;;;23.00;47.80;;;;;;5082595;28;19931;-48
2022/04/10 12:18:05;;;;;;;;;;;23.00;47.60;;;;;;5096147;28;19946;-51
2022/04/10 12:20:36;;;;;;;;;;;23.00;47.60;;;;;;5096563;28;20253;-46
2022/04/10 12:23:19;;;;;;;;;;;23.10;47.60;;;;;;5096028;28;20338;-45
2022/04/10 12:25:47;;;;;;;;;;;23.10;47.60;;;;;;5096021;28;20034;-52
2022/04/10 12:28:14;;;;;;;;;;;23.10;47.50;;;;;;5096234;28;19931;-49
2022/04/10 12:30:42;;;;;;;;;;;23.10;47.50;;;;;;5095179;28;19977;-48
2022/04/10 12:33:09;;;;;;;;;;;23.10;47.40;;;;;;5095827;28;19974;-45
2022/04/10 12:35:37;;;;;;;;;;;23.20;47.40;;;;;;5077953;28;19928;-49
2022/04/10 12:38:05;;;;;;;;;;;23.20;47.40;;;;;;5095821;28;19928;-45
2022/04/10 12:40:35;;;;;;;;;;;23.20;47.30;;;;;;5095583;28;19978;-48
2022/04/10 12:43:03;;;;;;;;;;;23.30;47.30;;;;;;5094604;28;19924;-44
2022/04/10 12:45:32;;;;;;;;;;;23.30;47.30;;;;;;5094628;28;20429;-44
2022/04/10 12:47:59;;;;;;;;;;;23.30;47.30;;;;;;5095861;28;20323;-45
2022/04/10 12:50:28;;;;;;;;;;;23.30;47.30;;;;;;5095291;28;20026;-45
2022/04/10 12:52:56;;;;;;;;;;;23.30;47.20;;;;;;5095437;28;19931;-45
2022/04/10 12:55:36;;;;;;;;;;;23.30;47.20;;;;;;5095680;28;19924;-45
2022/04/10 12:58:04;;;;;;;;;;;23.30;47.20;;;;;;5095362;28;19924;-44
2022/04/10 13:00:33;;;;;;;;;;;23.30;47.20;;;;;;5094668;28;20395;-45
2022/04/10 13:03:18;;;;;;;;;;;23.30;47.30;;;;;;5095179;28;19931;-44
2022/04/10 13:06:01;;;;;;;;;;;23.20;47.30;;;;;;5095222;28;20375;-45
2022/04/10 13:08:33;;;;;;;;;;;23.20;47.30;;;;;;5095364;28;20281;-45
2022/04/10 13:11:00;;;;;;;;;;;23.20;47.40;;;;;;5095389;28;20272;-44
2022/04/10 13:14:03;;;;;;;;;;;23.20;47.40;;;;;;5096206;28;19924;-46
2022/04/10 13:16:31;;;;;;;;;;;23.10;47.40;;;;;;5094424;28;20333;-44
2022/04/10 13:19:02;;;;;;;;;;;23.10;47.40;;;;;;5094937;28;19931;-45
2022/04/10 13:21:29;;;;;;;;;;;23.10;47.50;;;;;;5094746;28;19932;-44
2022/04/10 13:23:56;;;;;;;;;;;23.10;47.50;;;;;;5076811;28;19977;-44
2022/04/10 13:26:27;;;;;;;;;;;23.10;47.50;;;;;;5094808;28;19924;-44
2022/04/10 13:28:55;;;;;;;;;;;23.10;47.50;;;;;;5094741;28;19924;-44
2022/04/10 13:31:22;;;;;;;;;;;23.10;47.40;;;;;;5094023;28;19954;-45
2022/04/10 13:33:49;;;;;;;;;;;23.20;47.50;;;;;;5090076;28;19924;-44
2022/04/10 13:36:16;;;;;;;;;;;23.20;47.50;;;;;;5075187;28;20014;-44
2022/04/10 13:38:44;;;;;;;;;;;23.20;47.50;;;;;;5074235;28;20023;-44
2022/04/10 13:41:11;;;;;;;;;;;23.20;47.30;;;;;;5074236;28;19928;-44
2022/04/10 13:43:38;;;;;;;;;;;23.10;47.30;;;;;;5074186;28;19978;-44
2022/04/10 13:46:05;;;;;;;;;;;23.10;46.90;;;;;;5077719;28;19955;-45
2022/04/10 13:48:32;;;;;;;;;;;23.00;46.50;;;;;;5093563;28;19970;-45
2022/04/10 13:51:00;;;;;;;;;;;23.00;46.50;;;;;;5073580;28;19946;-44
2022/04/10 13:53:27;;;;;;;;;;;23.00;46.40;;;;;;5074038;28;20011;-44
2022/04/10 13:55:55;;;;;;;;;;;23.00;46.30;;;;;;5074341;28;19928;-45
2022/04/10 13:58:22;;;;;;;;;;;22.90;46.20;;;;;;5074307;28;19970;-44
2022/04/10 14:00:49;;;;;;;;;;;22.90;46.10;;;;;;5056354;28;19924;-44
2022/04/10 14:03:16;;;;;;;;;;;22.90;46.10;;;;;;5094481;28;20349;-44
2022/04/10 14:05:45;;;;;;;;;;;22.90;46.00;;;;;;5093098;28;20421;-44
2022/04/10 14:08:12;;;;;;;;;;;22.90;46.00;;;;;;5094003;28;19959;-44
2022/04/10 14:10:57;;;;;;;;;;;22.90;46.00;;;;;;5093991;28;19924;-44
2022/04/10 14:13:25;;;;;;;;;;;22.90;46.00;;;;;;5094363;28;19970;-46
2022/04/10 14:15:52;;;;;;;;;;;22.80;46.00;;;;;;5093822;28;19934;-44
2022/04/10 14:18:19;;;;;;;;;;;22.80;46.00;;;;;;5075930;28;19930;-47
2022/04/10 14:20:46;;;;;;;;;;;22.80;46.00;;;;;;5093435;28;19966;-44
2022/04/10 14:23:13;;;;;;;;;;;22.80;45.90;;;;;;5093699;28;19962;-50
2022/04/10 14:25:40;;;;;;;;;;;22.80;45.90;;;;;;5094736;28;19924;-44
2022/04/10 14:28:14;;;;;;;;;;;22.80;45.90;;;;;;5094176;28;20403;-45
2022/04/10 14:30:42;;;;;;;;;;;22.80;45.90;;;;;;5076203;28;19924;-45